KFFC

Details ICAO KFFC (FFC)
Name Atlanta Peachtree City Falcon Fld
Region United States
Timezone America/New_York (UTC-5.0)
Plans Departing 11
Arriving 18
Stats Elevation 808 ft / 246 m (AMSL)
Location 33.357246° -84.571831°
Runways 1
Magnetic Variation 4.956° W
Sunrise 2017-12-11 12:33:36 UTC / 2017-12-11 07:33:36 Local
Sunset 2017-12-11 22:32:36 UTC / 2017-12-11 17:32:36 Local
Advertisement - Login to hide

Runways

ID Width Length Bearing (true) Bearing (mag) Surface Threshold Offset Overrun Length
13 100 ft / 30 m 5,223 ft / 1,592 m 128.27° 133.23° Asphalt 0 ft / 0 m 0 ft / 0 m
31 100 ft / 30 m 5,223 ft / 1,592 m 308.27° 313.23° Asphalt 0 ft / 0 m 0 ft / 0 m

Approach Navaids

Runway Type Ident Frequency Range Bearing (true) Bearing (mag) Slope Elevation
31 Localiser FFC 111.95 MHz 18 nm / 33 km 308.29° 313.24° - 808 ft / 246 m (AMSL)
31 DME FFC 111.95 MHz 18 nm / 33 km - - - 808 ft / 246 m (AMSL)

Map

Weather


0- 5 10 15 20 25 30 35+ Temperature / ° C

Clouds and Precipitation
Forecast for 2017-12-11 12:00 UTC. Updated 43 minutes ago

Ground ~20,000 ft ~40,000 ft Winds

METAR

KFFC 110953Z AUTO 00000KT 10SM CLR M03/M04 A3020 RMK AO2 SLP236 I1000 T10281039

TAF

Not found
Warning: Do not use this data for real-world aviation or navigation. No guarantee of current accuracy is given.